Time;durP1;ratioP1;P1;durP2;ratioP2;P2;SDS_P1;SDS_P2;PMS_P1;PMS_P2;Temp;Humidity;BMP_temperature;BMP_pressure;BME280_temperature;BME280_humidity;BME280_pressure;Samples;Min_cycle;Max_cycle;Signal;HPM_P1;HPM_P2
2022/06/02 00:01:11;;;;;;;2.92;2.17;;;;;;;9.55;64.42;100986.41;5079506;28;20049;-70
2022/06/02 00:03:56;;;;;;;4.05;2.20;;;;;;;9.60;64.28;100987.81;5077974;28;20098;-70
2022/06/02 00:06:40;;;;;;;4.80;2.25;;;;;;;9.58;64.35;100990.66;5077413;28;20041;-71
2022/06/02 00:09:30;;;;;;;4.53;2.03;;;;;;;9.61;64.16;101001.03;5079259;28;20459;-70
2022/06/02 00:12:24;;;;;;;6.32;2.10;;;;;;;9.55;64.59;101002.50;5079573;28;20057;-70
2022/06/02 00:14:54;;;;;;;6.70;2.00;;;;;;;9.55;64.82;101007.00;5081380;28;20557;-69
2022/06/02 00:17:37;;;;;;;6.90;2.30;;;;;;;9.53;64.82;101009.81;5079907;28;20048;-68
2022/06/02 00:20:09;;;;;;;3.75;2.05;;;;;;;9.57;64.62;101013.88;5080137;28;20504;-67
2022/06/02 00:22:51;;;;;;;3.40;1.80;;;;;;;9.52;64.81;101005.47;5080200;28;20515;-70
2022/06/02 00:25:32;;;;;;;2.92;1.80;;;;;;;9.56;64.74;101008.69;5079506;28;20060;-71
2022/06/02 00:28:32;;;;;;;2.80;2.20;;;;;;;9.57;64.82;101015.72;5075895;28;20135;-70
2022/06/02 00:31:07;;;;;;;4.88;2.58;;;;;;;9.50;64.81;101010.09;5077311;28;20131;-70
2022/06/02 00:33:49;;;;;;;2.65;2.17;;;;;;;9.43;64.72;101011.69;5076941;28;20064;-69
2022/06/02 00:36:21;;;;;;;;;;;;;;;9.47;64.31;101009.56;5078951;28;20052;-69
2022/06/02 00:38:47;;;;;;;3.17;2.03;;;;;;;9.49;63.92;101008.44;5079919;28;19959;-70
2022/06/02 00:41:22;;;;;;;2.70;2.08;;;;;;;9.38;64.46;101005.94;5079727;28;20076;-69
2022/06/02 00:44:07;;;;;;;3.47;2.00;;;;;;;9.47;64.11;101009.56;5077534;28;20049;-70
2022/06/02 00:46:33;;;;;;;7.00;2.20;;;;;;;9.48;63.50;101008.59;5077474;28;20083;-68
2022/06/02 00:49:14;;;;;;;3.83;2.28;;;;;;;9.44;63.80;101018.75;5079353;28;20106;-70
2022/06/02 00:51:40;;;;;;;2.13;1.65;;;;;;;9.45;64.02;101023.09;5077708;28;20433;-69
2022/06/02 00:57:32;;;;;;;3.55;1.90;;;;;;;9.37;63.92;101014.97;5077766;28;20098;-70
2022/06/02 01:00:13;;;;;;;3.40;2.20;;;;;;;9.23;64.60;101026.94;5077296;28;20091;-70
2022/06/02 01:02:53;;;;;;;2.42;2.03;;;;;;;9.28;64.14;101024.69;5076199;28;20505;-70
2022/06/02 01:09:18;;;;;;;4.53;2.30;;;;;;;9.11;65.15;101036.09;5077483;28;20046;-70
2022/06/02 01:12:26;;;;;;;3.30;2.15;;;;;;;9.09;65.22;101041.63;5076305;28;20068;-71
2022/06/02 01:15:11;;;;;;;3.22;2.50;;;;;;;9.05;65.40;101045.53;5076192;28;20094;-71
2022/06/02 01:17:47;;;;;;;4.35;2.30;;;;;;;8.95;65.79;101041.19;5076202;28;20147;-70
2022/06/02 01:20:31;;;;;;;3.63;2.22;;;;;;;8.92;65.94;101045.00;5079480;28;20087;-70
2022/06/02 01:23:21;;;;;;;6.90;2.03;;;;;;;8.81;66.37;101051.31;5078598;28;20084;-70
2022/06/02 01:26:22;;;;;;;2.72;2.10;;;;;;;8.86;66.44;101053.59;5076814;28;20527;-70
2022/06/02 01:29:09;;;;;;;2.78;2.55;;;;;;;8.78;66.73;101048.06;5076656;28;20483;-70
2022/06/02 01:32:02;;;;;;;3.58;2.47;;;;;;;8.73;67.16;101050.34;5077807;28;20098;-70
2022/06/02 01:34:54;;;;;;;2.95;2.30;;;;;;;8.69;67.02;101056.97;5077956;28;20143;-70
2022/06/02 01:37:25;;;;;;;;;;;;;;;8.65;67.09;101059.06;5075463;28;20112;-70
2022/06/02 01:40:10;;;;;;;2.53;2.30;;;;;;;8.66;66.83;101062.59;5079953;28;19928;-70
2022/06/02 01:43:00;;;;;;;6.82;2.63;;;;;;;8.60;66.96;101062.16;5079422;28;20136;-70
2022/06/02 01:46:14;;;;;;;3.65;2.58;;;;;;;8.56;67.43;101062.56;5082755;28;20131;-71
2022/06/02 01:49:11;;;;;;;6.35;2.35;;;;;;;8.46;67.61;101067.91;5080005;28;20144;-71
2022/06/02 01:52:00;;;;;;;2.63;1.92;;;;;;;8.46;67.53;101067.91;5082169;28;20079;-70
2022/06/02 01:55:00;;;;;;;2.78;2.50;;;;;;;8.45;67.74;101068.91;5080140;28;20496;-71
2022/06/02 01:57:43;;;;;;;5.00;2.30;;;;;;;8.43;67.96;101068.16;5081039;28;20072;-70
2022/06/02 02:00:17;;;;;;;2.40;2.15;;;;;;;8.42;67.83;101071.84;5080362;28;20456;-70
2022/06/02 02:03:07;;;;;;;3.53;2.35;;;;;;;8.30;68.35;101075.63;5080339;28;20052;-70
2022/06/02 02:05:51;;;;;;;2.65;2.10;;;;;;;8.31;68.34;101069.28;5080345;28;20052;-70
2022/06/02 02:08:44;;;;;;;2.42;2.22;;;;;;;8.30;68.54;101075.63;5080032;28;20048;-71
2022/06/02 02:11:29;;;;;;;3.28;2.28;;;;;;;8.24;68.99;101078.84;5082300;28;20112;-70
2022/06/02 02:14:14;;;;;;;4.30;2.92;;;;;;;8.22;69.16;101080.78;5080648;28;20090;-70
2022/06/02 02:17:10;;;;;;;4.00;3.35;;;;;;;8.18;69.18;101085.56;5082910;28;20091;-70
2022/06/02 02:19:59;;;;;;;3.97;2.42;;;;;;;8.18;68.92;101084.72;5082936;28;20083;-70
2022/06/02 02:22:37;;;;;;;3.38;2.60;;;;;;;8.18;69.08;101090.91;5082617;28;20135;-69
2022/06/02 02:25:13;;;;;;;3.35;2.50;;;;;;;8.15;68.88;101101.84;5080999;28;20412;-69
2022/06/02 02:28:03;;;;;;;4.97;3.03;;;;;;;8.12;68.96;101094.97;5079123;28;20112;-70
2022/06/02 02:30:45;;;;;;;2.75;2.35;;;;;;;8.08;69.31;101101.56;5079568;28;20055;-69
2022/06/02 02:33:20;;;;;;;3.50;2.60;;;;;;;8.03;69.39;101097.63;5079707;28;20049;-70
2022/06/02 02:36:12;;;;;;;3.03;2.53;;;;;;;7.96;70.04;101102.66;5081910;28;20056;-70
2022/06/02 02:39:00;;;;;;;6.55;2.75;;;;;;;7.96;69.87;101094.63;5079385;28;20079;-70
2022/06/02 02:41:48;;;;;;;3.30;2.40;;;;;;;7.94;70.24;101096.56;5080546;28;20076;-71
2022/06/02 02:44:36;;;;;;;3.63;2.10;;;;;;;7.86;70.33;101093.72;5079701;28;20501;-70
2022/06/02 02:47:31;;;;;;;2.88;2.20;;;;;;;7.83;70.57;101101.97;5079703;28;20076;-71
2022/06/02 02:50:14;;;;;;;2.85;2.30;;;;;;;7.88;70.21;101097.97;5078069;28;20521;-70
2022/06/02 02:52:57;;;;;;;6.63;2.70;;;;;;;7.87;70.30;101103.44;5078682;28;20056;-70
2022/06/02 02:55:36;;;;;;;2.58;2.28;;;;;;;7.83;70.26;101096.63;5080231;28;20136;-70
2022/06/02 02:58:20;;;;;;;3.03;2.08;;;;;;;7.81;70.42;101094.13;5081503;28;20068;-70
2022/06/02 03:00:59;;;;;;;3.15;2.40;;;;;;;7.78;70.75;101104.22;5079645;28;20457;-70
2022/06/02 03:03:34;;;;;;;2.83;2.17;;;;;;;7.74;70.60;101098.28;5079935;28;20052;-71
2022/06/02 03:06:18;;;;;;;4.63;2.40;;;;;;;7.74;70.71;101100.97;5080469;28;20072;-70
2022/06/02 03:08:54;;;;;;;4.13;2.28;;;;;;;7.79;70.58;101106.75;5078850;28;20502;-71
2022/06/02 03:11:39;;;;;;;3.78;2.28;;;;;;;7.75;70.68;101099.13;5078327;28;20084;-70
2022/06/02 03:14:18;;;;;;;3.08;2.15;;;;;;;7.78;70.77;101110.41;5079267;28;20480;-70
2022/06/02 03:16:51;;;;;;;2.95;2.10;;;;;;;7.73;70.60;101117.09;5080189;28;20048;-70
2022/06/02 03:19:43;;;;;;;5.40;2.45;;;;;;;7.74;70.93;101125.00;5078520;28;20052;-70
2022/06/02 03:22:33;;;;;;;3.13;2.33;;;;;;;7.79;70.49;101130.78;5079360;28;20496;-69
2022/06/02 03:25:03;;;;;;;2.92;2.30;;;;;;;7.78;70.56;101145.13;5080124;28;20048;-70
2022/06/02 03:27:53;;;;;;;4.78;2.28;;;;;;;7.78;70.29;101146.94;5079267;28;20040;-70
2022/06/02 03:30:22;;;;;;;3.35;2.40;;;;;;;7.80;70.26;101148.50;5079756;28;20123;-71
2022/06/02 03:33:01;;;;;;;2.95;2.25;;;;;;;7.90;69.79;101152.09;5079507;28;20087;-71
2022/06/02 03:35:52;;;;;;;7.22;2.70;;;;;;;7.79;70.13;101154.81;5078126;28;20094;-71
2022/06/02 03:38:57;;;;;;;7.00;4.35;;;;;;;7.80;70.26;101150.31;5079720;28;20048;-70
2022/06/02 03:41:56;;;;;;;4.10;2.42;;;;;;;7.81;70.01;101158.22;5079145;28;20094;-70
2022/06/02 03:44:45;;;;;;;2.45;2.10;;;;;;;7.85;69.99;101157.00;5081612;28;20131;-71
2022/06/02 03:47:39;;;;;;;3.60;2.08;;;;;;;7.84;70.17;101157.97;5080982;28;20209;-69
2022/06/02 03:50:47;;;;;;;2.17;1.98;;;;;;;7.93;69.68;101159.00;5078387;28;20057;-70
2022/06/02 03:53:28;;;;;;;4.50;2.13;;;;;;;7.94;69.65;101168.72;5078877;28;20048;-71
2022/06/02 03:56:11;;;;;;;2.47;2.10;;;;;;;7.97;69.61;101165.78;5078533;28;20052;-70
2022/06/02 03:58:55;;;;;;;4.53;2.10;;;;;;;8.00;69.66;101172.69;5077164;28;20084;-69
2022/06/02 04:01:26;;;;;;;3.15;2.22;;;;;;;7.87;69.85;101172.88;5077081;28;20120;-71
2022/06/02 04:03:56;;;;;;;3.90;2.25;;;;;;;8.03;69.62;101178.63;5078371;28;20461;-69
2022/06/02 04:06:40;;;;;;;2.88;2.17;;;;;;;8.06;69.72;101183.69;5080528;28;20463;-69
2022/06/02 04:09:38;;;;;;;2.65;2.00;;;;;;;8.10;69.50;101173.59;5078374;28;20045;-71
2022/06/02 04:15:30;;;;;;;3.33;2.40;;;;;;;8.20;69.24;101190.53;5077443;28;20075;-70
2022/06/02 04:18:32;;;;;;;1.98;1.80;;;;;;;8.24;69.27;101191.94;5081833;28;20080;-70
2022/06/02 04:21:12;;;;;;;3.20;2.30;;;;;;;8.17;69.11;101201.47;5082627;28;20049;-70
2022/06/02 04:24:04;;;;;;;5.03;2.58;;;;;;;8.22;69.07;101198.38;5101376;28;20052;-70
2022/06/02 04:27:04;;;;;;;3.55;2.35;;;;;;;8.22;69.56;101201.91;5101292;28;20464;-70
2022/06/02 04:29:51;;;;;;;4.10;2.65;;;;;;;8.38;68.65;101210.28;5083749;28;20071;-70
2022/06/02 04:32:28;;;;;;;4.03;2.50;;;;;;;8.37;68.93;101202.41;5098828;28;20447;-70
2022/06/02 04:35:23;;;;;;;4.57;3.03;;;;;;;8.25;69.39;101200.81;5100335;28;20072;-70
2022/06/02 04:38:17;;;;;;;4.72;3.08;;;;;;;8.37;68.85;101202.41;5099096;28;20067;-70
2022/06/02 04:41:00;;;;;;;4.57;3.20;;;;;;;8.54;68.28;101204.47;5099148;28;20079;-71
2022/06/02 04:44:03;;;;;;;5.35;3.25;;;;;;;8.47;68.81;101207.78;5097210;28;20415;-71
2022/06/02 04:46:47;;;;;;;6.03;3.58;;;;;;;8.39;69.06;101213.81;5098094;28;20072;-69
2022/06/02 04:49:43;;;;;;;6.68;3.88;;;;;;;8.50;68.70;101205.69;5099502;28;20048;-71
2022/06/02 04:52:37;;;;;;;4.85;3.83;;;;;;;8.54;68.63;101214.31;5098442;28;20140;-69
2022/06/02 04:55:11;;;;;;;4.80;3.83;;;;;;;8.58;68.79;101219.25;5097924;28;20051;-70
2022/06/02 04:58:08;;;;;;;4.60;3.95;;;;;;;8.65;68.33;101218.72;5098591;28;20541;-70
2022/06/02 05:00:48;;;;;;;5.60;4.35;;;;;;;8.64;68.69;101227.69;5098125;28;20048;-70
2022/06/02 05:03:42;;;;;;;5.78;4.43;;;;;;;8.73;68.19;101226.91;5098931;28;20433;-70
2022/06/02 05:06:36;;;;;;;5.85;4.45;;;;;;;8.70;68.60;101230.69;5097420;28;20138;-70
2022/06/02 05:09:19;;;;;;;9.18;4.90;;;;;;;8.84;68.08;101232.13;5100720;28;20095;-71
2022/06/02 05:12:04;;;;;;;6.72;4.55;;;;;;;8.89;68.10;101229.06;5101103;28;20059;-70
2022/06/02 05:14:47;;;;;;;6.28;4.93;;;;;;;8.88;68.38;101228.19;5096968;28;20139;-69
2022/06/02 05:17:36;;;;;;;12.15;4.90;;;;;;;8.88;68.49;101230.88;5097647;28;20044;-69
2022/06/02 05:20:36;;;;;;;7.18;5.13;;;;;;;8.85;68.55;101239.19;5100630;28;20521;-70
2022/06/02 05:23:25;;;;;;;6.88;5.53;;;;;;;8.67;69.40;101247.00;5117978;28;20481;-72
2022/06/02 05:26:25;;;;;;;14.07;9.25;;;;;;;8.82;68.60;101244.81;5124109;28;20051;-71
2022/06/02 05:29:10;;;;;;;8.07;6.40;;;;;;;8.79;69.16;101253.09;5124158;28;20070;-73
2022/06/02 05:31:54;;;;;;;7.30;5.68;;;;;;;8.95;68.55;101253.41;5125394;28;20146;-72
2022/06/02 05:34:42;;;;;;;8.07;6.03;;;;;;;8.88;69.03;101248.75;5124038;28;20048;-75
2022/06/02 05:37:41;;;;;;;7.18;5.75;;;;;;;8.94;68.69;101261.59;5124368;28;20043;-73
2022/06/02 05:40:28;;;;;;;8.57;6.13;;;;;;;8.94;69.06;101264.28;5126126;28;20047;-72
2022/06/02 05:43:10;;;;;;;8.30;6.65;;;;;;;9.05;68.56;101266.84;5124930;28;20052;-72
2022/06/02 05:45:51;;;;;;;9.95;6.60;;;;;;;9.09;68.48;101270.94;5123673;28;20404;-72
2022/06/02 05:48:34;;;;;;;9.27;7.03;;;;;;;9.08;68.58;101278.13;5123443;28;20044;-72
2022/06/02 05:51:10;;;;;;;8.93;7.80;;;;;;;9.15;68.49;101281.09;5122825;28;20052;-72
2022/06/02 05:53:56;;;;;;;12.38;8.63;;;;;;;9.02;68.77;101286.72;5120633;28;20048;-72
2022/06/02 05:56:47;;;;;;;10.70;8.13;;;;;;;9.12;68.75;101278.69;5124898;28;20067;-72
2022/06/02 05:59:50;;;;;;;14.10;8.10;;;;;;;9.31;68.54;101291.31;5121720;28;20055;-75
2022/06/02 06:02:43;;;;;;;15.05;8.02;;;;;;;9.22;68.67;101290.25;5120874;28;20055;-72
2022/06/02 06:05:28;;;;;;;11.20;8.38;;;;;;;9.50;67.96;101294.00;5124588;28;20067;-72
2022/06/02 06:08:29;;;;;;;13.50;8.77;;;;;;;9.64;67.09;101298.09;5124105;28;20044;-73
2022/06/02 06:11:30;;;;;;;11.30;8.15;;;;;;;9.78;66.77;101299.53;5106573;28;20112;-74
2022/06/02 06:14:26;;;;;;;14.05;9.20;;;;;;;9.77;66.35;101305.88;5123986;28;20039;-72
2022/06/02 06:17:05;;;;;;;11.90;8.70;;;;;;;9.51;67.03;101306.44;5124216;28;20055;-73
2022/06/02 06:19:46;;;;;;;12.57;9.10;;;;;;;9.71;66.45;101304.59;5124250;28;20048;-73
2022/06/02 06:22:47;;;;;;;13.23;8.30;;;;;;;9.76;66.63;101307.72;5124187;28;20563;-76
2022/06/02 06:25:42;;;;;;;12.75;9.32;;;;;;;9.92;66.13;101308.97;5125026;28;20048;-72
2022/06/02 06:28:18;;;;;;;12.70;8.60;;;;;;;9.93;66.35;101308.00;5127489;28;20063;-72
2022/06/02 06:31:01;;;;;;;16.70;9.05;;;;;;;9.90;66.55;101311.81;5127427;28;20437;-72
2022/06/02 06:33:48;;;;;;;10.75;7.95;;;;;;;10.08;65.69;101308.41;5129323;28;20058;-72
2022/06/02 06:36:15;;;;;;;10.90;8.45;;;;;;;10.12;65.93;101320.53;5127291;28;20048;-72
2022/06/02 06:39:03;;;;;;;11.00;8.52;;;;;;;10.18;65.50;101318.13;5127481;28;20052;-72
2022/06/02 06:41:48;;;;;;;16.48;11.40;;;;;;;10.29;65.23;101319.81;5126194;28;20449;-72
2022/06/02 06:44:31;;;;;;;14.63;9.15;;;;;;;10.27;64.69;101322.66;5126656;28;20104;-73
2022/06/02 06:47:21;;;;;;;14.15;8.25;;;;;;;10.62;63.55;101331.06;5126787;28;20057;-72
2022/06/02 06:50:03;;;;;;;11.88;7.93;;;;;;;10.90;62.48;101332.81;5128159;28;20048;-73
2022/06/02 06:52:45;;;;;;;;;;;;;;;11.14;61.20;101332.28;5128293;28;20059;-72
2022/06/02 06:55:49;;;;;;;12.18;7.65;;;;;;;11.26;61.23;101335.59;5110676;28;19920;-72
2022/06/02 06:58:32;;;;;;;10.60;7.05;;;;;;;11.40;60.22;101342.31;5128704;28;20050;-73
2022/06/02 07:01:13;;;;;;;9.45;7.40;;;;;;;11.55;59.08;101329.19;5127948;28;20092;-72
2022/06/02 07:03:50;;;;;;;9.88;6.90;;;;;;;11.89;58.28;101338.31;5129307;28;20467;-72
2022/06/02 07:06:39;;;;;;;9.52;6.40;;;;;;;12.20;57.17;101343.28;5129863;28;20047;-72
2022/06/02 07:09:17;;;;;;;7.72;6.25;;;;;;;12.53;56.40;101338.16;5129016;28;20047;-72
2022/06/02 07:15:11;;;;;;;8.13;6.32;;;;;;;12.15;56.74;101346.44;5128408;28;20044;-72
2022/06/02 07:17:47;;;;;;;6.90;6.10;;;;;;;12.61;55.71;101351.66;5127784;28;20360;-72
2022/06/02 07:20:40;;;;;;;8.00;5.63;;;;;;;12.58;55.31;101346.59;5125997;28;20051;-73
2022/06/02 07:23:27;;;;;;;12.55;5.13;;;;;;;13.11;54.18;101343.75;5126627;28;20052;-73
2022/06/02 07:26:06;;;;;;;6.45;4.93;;;;;;;13.78;51.83;101338.41;5128194;28;20059;-73
2022/06/02 07:29:00;;;;;;;7.53;4.60;;;;;;;13.39;52.33;101339.94;5128258;28;20086;-78
2022/06/02 07:31:46;;;;;;;6.18;4.43;;;;;;;12.63;54.03;101353.19;5126424;28;20067;-72
2022/06/02 07:34:34;;;;;;;7.53;4.72;;;;;;;13.49;51.42;101352.31;5128712;28;20054;-73
2022/06/02 07:37:37;;;;;;;12.63;4.05;;;;;;;14.57;48.33;101346.00;5127400;28;20405;-73
2022/06/02 07:40:42;;;;;;;8.68;3.85;;;;;;;14.63;47.95;101347.97;5125733;28;20101;-72
2022/06/02 07:43:36;;;;;;;8.68;3.67;;;;;;;14.24;49.48;101346.84;5087733;28;20061;-71
2022/06/02 07:46:19;;;;;;;7.28;3.92;;;;;;;13.90;50.53;101356.94;5127528;28;20050;-73
2022/06/02 07:49:04;;;;;;;8.00;4.00;;;;;;;14.25;49.61;101358.47;5126818;28;20105;-73
2022/06/02 07:51:36;;;;;;;6.65;3.38;;;;;;;14.23;49.27;101363.22;5126910;28;20086;-72
2022/06/02 07:54:23;;;;;;;8.88;3.38;;;;;;;14.02;49.27;101356.47;5126393;28;20047;-72
2022/06/02 07:57:16;;;;;;;8.65;3.65;;;;;;;13.76;48.44;101363.84;5108775;28;20094;-73
2022/06/02 08:00:03;;;;;;;10.75;3.85;;;;;;;13.09;50.41;101375.38;5126924;28;20054;-75
2022/06/02 08:02:43;;;;;;;8.25;3.67;;;;;;;13.06;50.81;101378.38;5128124;28;20047;-72
2022/06/02 08:05:31;;;;;;;10.93;4.20;;;;;;;12.60;52.25;101391.19;5126762;28;20052;-72
2022/06/02 08:08:08;;;;;;;6.05;3.72;;;;;;;12.33;53.41;101392.16;5126137;28;20073;-72
2022/06/02 08:11:03;;;;;;;11.75;3.90;;;;;;;12.58;52.93;101389.66;5123712;28;20082;-72
2022/06/02 08:13:57;;;;;;;9.95;3.55;;;;;;;13.74;50.67;101382.84;5124292;28;20058;-72
2022/06/02 08:16:44;;;;;;;6.95;3.90;;;;;;;14.51;48.65;101385.31;5121457;28;20130;-72
2022/06/02 08:19:40;;;;;;;4.72;3.08;;;;;;;15.28;46.78;101398.34;5119299;28;20047;-72
2022/06/02 08:22:14;;;;;;;7.20;2.97;;;;;;;15.97;44.39;101396.66;5120939;28;20096;-72
2022/06/02 08:25:03;;;;;;;3.10;2.50;;;;;;;16.11;42.02;101395.03;5120092;28;20063;-72
2022/06/02 08:28:09;;;;;;;5.47;2.55;;;;;;;15.15;43.61;101394.31;5119031;28;20040;-71
2022/06/02 08:30:47;;;;;;;9.32;2.50;;;;;;;15.25;44.03;101403.06;5124403;28;20082;-72
2022/06/02 08:33:26;;;;;;;8.70;2.30;;;;;;;14.74;44.46;101402.53;5122207;28;20450;-72
2022/06/02 08:35:59;;;;;;;5.57;1.85;;;;;;;14.46;43.33;101414.66;5126473;28;20067;-73
2022/06/02 08:38:46;;;;;;;5.20;1.80;;;;;;;15.36;41.89;101418.09;5125710;28;20055;-72
2022/06/02 08:41:58;;;;;;;3.03;1.42;;;;;;;16.22;40.53;101420.84;5120950;28;20105;-72
2022/06/02 08:44:48;;;;;;;5.57;2.10;;;;;;;14.91;42.23;101418.69;5103166;28;20067;-73
2022/06/02 08:47:35;;;;;;;5.43;1.75;;;;;;;14.74;42.38;101421.44;5120926;28;20052;-71
2022/06/02 08:50:30;;;;;;;3.78;1.65;;;;;;;15.24;41.91;101419.47;5122859;28;20089;-72
2022/06/02 08:53:54;;;;;;;4.85;1.67;;;;;;;14.57;43.37;101416.19;5123665;28;20554;-71
2022/06/02 08:56:51;;;;;;;7.50;2.58;;;;;;;15.37;42.43;101417.06;5124200;28;20051;-72
2022/06/02 08:59:49;;;;;;;3.20;1.60;;;;;;;16.28;40.59;101428.25;5120070;28;20134;-73
2022/06/02 09:02:42;;;;;;;2.72;1.50;;;;;;;17.03;38.63;101425.56;5120370;28;20065;-71
2022/06/02 09:05:30;;;;;;;3.67;1.40;;;;;;;17.01;37.36;101414.06;5121116;28;20054;-74
2022/06/02 09:08:18;;;;;;;3.22;1.70;;;;;;;16.72;37.31;101416.75;5118102;28;20073;-72
2022/06/02 09:10:51;;;;;;;5.45;1.35;;;;;;;16.52;37.49;101419.94;5117824;28;20138;-72
2022/06/02 09:13:44;;;;;;;6.03;1.25;;;;;;;15.68;39.46;101422.53;5118394;28;20043;-71
2022/06/02 09:16:34;;;;;;;5.80;1.92;;;;;;;15.18;41.48;101425.56;5107596;28;20143;-73
2022/06/02 09:19:14;;;;;;;3.65;1.65;;;;;;;16.53;39.34;101432.47;5121209;28;20047;-73
2022/06/02 09:22:17;;;;;;;3.92;1.70;;;;;;;16.94;39.38;101423.13;5118785;28;20055;-71
2022/06/02 09:25:06;;;;;;;4.22;1.60;;;;;;;17.50;35.65;101424.34;5118790;28;20055;-72
2022/06/02 09:27:58;;;;;;;2.70;1.10;;;;;;;17.65;34.57;101424.34;5120830;28;20514;-72
2022/06/02 09:30:41;;;;;;;3.05;1.52;;;;;;;18.38;32.79;101433.31;5118051;28;20126;-72
2022/06/02 09:33:37;;;;;;;2.58;1.40;;;;;;;18.63;32.78;101430.19;5117359;28;20448;-72
2022/06/02 09:36:35;;;;;;;2.92;1.20;;;;;;;19.24;32.67;101422.25;5118005;28;20149;-72
2022/06/02 09:39:39;;;;;;;6.10;1.58;;;;;;;19.12;32.46;101418.44;5117754;28;20100;-72
2022/06/02 09:42:40;;;;;;;4.72;1.30;;;;;;;19.56;31.78;101425.38;5119681;28;20047;-72
2022/06/02 09:45:27;;;;;;;3.63;1.20;;;;;;;18.66;33.27;101429.78;5118293;28;20237;-73
2022/06/02 09:48:23;;;;;;;2.55;1.17;;;;;;;18.50;33.10;101430.91;5119256;28;20051;-72
2022/06/02 09:51:08;;;;;;;6.13;1.08;;;;;;;19.07;32.67;101431.78;5116035;28;20134;-71
2022/06/02 09:54:01;;;;;;;4.35;1.23;;;;;;;17.96;34.51;101437.66;5116939;28;20402;-72
2022/06/02 09:57:00;;;;;;;3.95;1.02;;;;;;;17.95;34.43;101430.53;5118854;28;20062;-71
2022/06/02 09:59:39;;;;;;;3.50;1.50;;;;;;;17.41;36.00;101430.94;5120169;28;20081;-73
2022/06/02 10:02:37;;;;;;;2.97;1.20;;;;;;;18.59;33.84;101434.34;5122686;28;20092;-71
2022/06/02 10:05:25;;;;;;;4.13;1.10;;;;;;;19.47;32.09;101436.41;5125740;28;20105;-71
2022/06/02 10:08:05;;;;;;;9.38;1.15;;;;;;;19.33;30.91;101436.53;5123694;28;20118;-72
2022/06/02 10:10:42;;;;;;;5.03;1.17;;;;;;;20.15;29.30;101424.75;5124576;28;20055;-74
2022/06/02 10:13:33;;;;;;;4.28;1.20;;;;;;;19.20;31.10;101431.88;5104653;28;20058;-70
2022/06/02 10:16:21;;;;;;;2.53;1.20;;;;;;;18.99;31.08;101435.50;5124706;28;20108;-73
2022/06/02 10:19:02;;;;;;;3.33;1.30;;;;;;;17.96;32.97;101440.38;5120062;28;20048;-72
2022/06/02 10:21:44;;;;;;;5.97;1.17;;;;;;;17.56;32.69;101442.59;5121890;28;20466;-71
2022/06/02 10:24:39;;;;;;;2.50;1.10;;;;;;;18.33;31.49;101434.91;5121628;28;20079;-71
2022/06/02 10:27:39;;;;;;;7.93;0.90;;;;;;;19.59;30.01;101439.41;5119383;28;20102;-72
2022/06/02 10:30:30;;;;;;;8.38;1.35;;;;;;;19.03;31.21;101434.06;5119796;28;20039;-72
2022/06/02 10:33:04;;;;;;;5.10;1.20;;;;;;;18.93;30.86;101442.59;5102729;28;20138;-71
2022/06/02 10:35:40;;;;;;;3.58;1.30;;;;;;;18.72;31.47;101435.28;5124860;28;20051;-72
2022/06/02 10:38:17;;;;;;;3.00;1.40;;;;;;;18.67;30.91;101448.59;5124283;28;20067;-72
2022/06/02 10:41:02;;;;;;;4.00;1.23;;;;;;;18.46;31.79;101446.75;5123029;28;20462;-72
2022/06/02 10:43:38;;;;;;;4.55;1.10;;;;;;;18.05;32.43;101455.50;5120651;28;20044;-72
2022/06/02 10:46:23;;;;;;;3.30;0.90;;;;;;;17.46;33.44;101455.59;5123783;28;20082;-71
2022/06/02 10:49:20;;;;;;;3.72;1.15;;;;;;;17.32;33.16;101453.72;5122985;28;20047;-71
2022/06/02 10:52:28;;;;;;;3.67;1.20;;;;;;;16.74;34.13;101455.31;5124681;28;20047;-71
2022/06/02 10:55:24;;;;;;;5.00;1.30;;;;;;;16.24;35.27;101454.00;5123814;28;20047;-73
2022/06/02 10:58:03;;;;;;;2.95;1.00;;;;;;;15.94;34.84;101454.66;5125202;28;20047;-71
2022/06/02 11:01:12;;;;;;;3.72;1.42;;;;;;;15.62;35.93;101455.66;5124140;28;20452;-72
2022/06/02 11:03:57;;;;;;;4.55;1.35;;;;;;;16.01;34.89;101452.09;5076049;28;20101;-72
2022/06/02 11:06:49;;;;;;;2.05;1.25;;;;;;;15.75;34.67;101459.69;5124689;28;20044;-71
2022/06/02 11:09:50;;;;;;;3.10;1.33;;;;;;;15.68;35.16;101457.69;5122766;28;20135;-72
2022/06/02 11:12:43;;;;;;;10.68;1.02;;;;;;;15.99;34.08;101448.75;5122411;28;20047;-72
2022/06/02 11:15:37;;;;;;;3.03;1.05;;;;;;;16.14;34.60;101459.63;5120468;28;20494;-72
2022/06/02 11:18:22;;;;;;;2.75;1.05;;;;;;;16.11;34.36;101455.41;5120298;28;20570;-73
2022/06/02 11:21:19;;;;;;;6.40;1.25;;;;;;;16.04;34.50;101459.84;5122989;28;20048;-72
2022/06/02 11:24:27;;;;;;;2.63;1.10;;;;;;;16.56;33.65;101461.91;5122341;28;20134;-71
2022/06/02 11:27:21;;;;;;;5.65;0.82;;;;;;;17.04;31.83;101457.06;5122781;28;20052;-71
2022/06/02 11:29:53;;;;;;;1.75;1.10;;;;;;;16.94;31.70;101459.19;5123384;28;20055;-71
2022/06/02 11:32:31;;;;;;;7.30;3.38;;;;;;;17.34;31.67;101457.97;5124615;28;20173;-72
2022/06/02 11:35:31;;;;;;;2.00;1.13;;;;;;;16.85;31.75;101454.88;5122156;28;20071;-71
2022/06/02 11:38:11;;;;;;;4.10;0.80;;;;;;;16.49;30.95;101457.34;5120700;28;20078;-73
2022/06/02 11:40:58;;;;;;;;;;;;;;;15.98;31.20;101457.03;5121909;28;20047;-70
2022/06/02 11:43:41;;;;;;;1.73;0.63;;;;;;;15.95;32.24;101450.09;5122010;28;19923;-71
2022/06/02 11:46:46;;;;;;;2.45;0.60;;;;;;;16.21;32.11;101447.06;5121970;28;20107;-72
2022/06/02 11:50:02;;;;;;;4.00;1.05;;;;;;;15.64;32.84;101445.53;5121249;28;20051;-72
2022/06/02 11:52:59;;;;;;;2.45;0.70;;;;;;;15.57;33.40;101441.81;5125329;28;20051;-72
2022/06/02 11:55:36;;;;;;;3.80;0.90;;;;;;;16.23;33.26;101442.34;5123954;28;20051;-70
2022/06/02 11:58:34;;;;;;;4.45;1.23;;;;;;;16.36;32.11;101450.66;5124050;28;20111;-71
2022/06/02 12:01:25;;;;;;;3.20;0.70;;;;;;;16.30;32.41;101440.59;5123693;28;20055;-72
2022/06/02 12:04:10;;;;;;;1.93;0.80;;;;;;;16.28;31.91;101439.06;5120341;28;20052;-72
2022/06/02 12:07:08;;;;;;;3.85;0.80;;;;;;;16.31;32.52;101444.97;5120536;28;20048;-72
2022/06/02 12:10:18;;;;;;;4.07;0.80;;;;;;;16.17;33.50;101443.88;5121844;28;20139;-73
2022/06/02 12:13:09;;;;;;;1.60;0.80;;;;;;;16.07;33.47;101451.38;5124227;28;20061;-73
2022/06/02 12:15:44;;;;;;;2.40;0.80;;;;;;;16.23;32.84;101449.59;5120965;28;20047;-74
2022/06/02 12:18:38;;;;;;;0.80;0.50;;;;;;;15.93;31.99;101458.41;5122898;28;20048;-72
2022/06/02 12:21:20;;;;;;;1.70;0.70;;;;;;;15.68;32.36;101459.56;5122586;28;20111;-72
2022/06/02 12:24:00;;;;;;;4.57;0.88;;;;;;;15.78;32.49;101449.38;5122069;28;20407;-73
2022/06/02 12:26:59;;;;;;;3.88;0.65;;;;;;;15.63;33.24;101449.25;5123912;28;20052;-72
2022/06/02 12:30:02;;;;;;;2.58;0.80;;;;;;;15.62;33.25;101450.25;5124464;28;20100;-72
2022/06/02 12:33:09;;;;;;;2.70;0.90;;;;;;;15.63;32.89;101448.41;5123963;28;20047;-73
2022/06/02 12:36:06;;;;;;;3.08;0.80;;;;;;;15.68;33.87;101452.28;5123979;28;20120;-72
2022/06/02 12:38:43;;;;;;;2.17;0.90;;;;;;;15.35;34.18;101450.69;5121823;28;20370;-77
2022/06/02 12:41:40;;;;;;;2.47;0.80;;;;;;;15.38;33.61;101451.19;5123640;28;20119;-72
2022/06/02 12:44:28;;;;;;;1.85;0.73;;;;;;;15.40;33.81;101461.84;5121120;28;20074;-72
2022/06/02 12:47:10;;;;;;;2.33;1.10;;;;;;;15.46;33.58;101455.72;5122353;28;20479;-74
2022/06/02 12:50:06;;;;;;;2.40;1.23;;;;;;;15.64;33.65;101452.78;5122946;28;20053;-72
2022/06/02 12:53:06;;;;;;;4.18;1.10;;;;;;;15.53;32.01;101461.25;5121533;28;20050;-72
2022/06/02 12:56:10;;;;;;;1.38;0.80;;;;;;;15.22;32.66;101459.31;5124166;28;20059;-71
2022/06/02 12:58:42;;;;;;;2.78;0.80;;;;;;;15.38;33.12;101469.25;5120415;28;20459;-71
2022/06/02 13:01:46;;;;;;;2.63;1.00;;;;;;;15.30;33.13;101458.47;5120087;28;20082;-71
2022/06/02 13:04:51;;;;;;;2.67;0.82;;;;;;;15.31;33.03;101468.28;5121400;28;20161;-72
2022/06/02 13:07:36;;;;;;;3.85;1.55;;;;;;;15.29;33.81;101459.47;5118615;28;20082;-71
2022/06/02 13:10:31;;;;;;;4.15;2.08;;;;;;;15.44;33.37;101458.59;5117754;28;20047;-71
2022/06/02 13:13:32;;;;;;;1.73;1.02;;;;;;;15.51;33.38;101464.16;5119023;28;20071;-71
2022/06/02 13:16:38;;;;;;;4.70;1.00;;;;;;;15.64;33.10;101469.00;5117352;28;20079;-70
2022/06/02 13:19:31;;;;;;;3.72;1.00;;;;;;;15.48;32.56;101470.75;5119258;28;20097;-71